createdAt,value
2019-02-17T00:01:24.032Z,101980.53
2019-02-17T00:03:54.027Z,101982.23
2019-02-17T00:06:23.994Z,101980.17
2019-02-17T00:08:54.898Z,101982.47
2019-02-17T00:11:24.854Z,101976.44
2019-02-17T00:13:54.811Z,101982.92
2019-02-17T00:16:24.760Z,101976.70
2019-02-17T00:18:54.721Z,101979.16
2019-02-17T00:21:24.684Z,101982.56
2019-02-17T00:23:54.572Z,101976.86
2019-02-17T00:26:24.604Z,101976.60
2019-02-17T00:28:59.378Z,101974.20
2019-02-17T00:31:26.490Z,101975.58
2019-02-17T00:33:56.763Z,101965.48
2019-02-17T00:36:26.715Z,101969.29
2019-02-17T00:38:56.665Z,101964.27
2019-02-17T00:41:26.611Z,101959.36
2019-02-17T00:44:01.634Z,101956.27
2019-02-17T00:46:31.921Z,101966.64
2019-02-17T00:49:01.869Z,101959.16
2019-02-17T00:51:32.176Z,101965.66
2019-02-17T00:54:02.791Z,101956.53
2019-02-17T00:56:32.760Z,101960.67
2019-02-17T00:59:09.753Z,101962.97
2019-02-17T01:01:34.296Z,101956.93
2019-02-17T01:04:04.607Z,101952.37
2019-02-17T01:06:34.551Z,101952.50
2019-02-17T01:09:06.689Z,101946.08
2019-02-17T01:11:36.699Z,101946.14
2019-02-17T01:14:06.650Z,101946.66
2019-02-17T01:16:36.633Z,101942.44
2019-02-17T01:19:06.609Z,101944.27
2019-02-17T01:21:36.892Z,101948.33
2019-02-17T01:24:07.150Z,101940.20
2019-02-17T01:26:37.017Z,101942.55
2019-02-17T01:29:06.964Z,101949.27
2019-02-17T01:31:36.832Z,101950.30
2019-02-17T01:34:10.615Z,101952.98
2019-02-17T01:36:40.564Z,101946.11
2019-02-17T01:39:10.799Z,101947.15
2019-02-17T01:41:40.754Z,101945.93
2019-02-17T01:44:10.982Z,101945.84
2019-02-17T01:46:41.278Z,101943.22
2019-02-17T01:49:11.819Z,101941.15
2019-02-17T01:51:41.772Z,101936.88
2019-02-17T01:54:11.970Z,101940.48
2019-02-17T01:56:41.976Z,101937.86
2019-02-17T01:59:13.034Z,101932.23
2019-02-17T02:01:43.068Z,101931.70
2019-02-17T02:04:13.305Z,101929.61
2019-02-17T02:06:43.259Z,101927.96
2019-02-17T02:09:13.327Z,101924.61
2019-02-17T02:11:43.291Z,101917.27
2019-02-17T02:14:13.170Z,101915.05
2019-02-17T02:16:43.058Z,101918.98
2019-02-17T02:19:13.000Z,101918.13
2019-02-17T02:21:43.237Z,101913.44
2019-02-17T02:24:13.169Z,101920.56
2019-02-17T02:26:43.120Z,101909.82
2019-02-17T02:29:13.345Z,101909.82
2019-02-17T02:31:43.316Z,101903.73
2019-02-17T02:34:13.270Z,101901.56
2019-02-17T02:36:43.225Z,101899.86
2019-02-17T02:39:13.167Z,101900.25
2019-02-17T02:41:43.123Z,101897.97
2019-02-17T02:44:13.730Z,101893.12
2019-02-17T02:46:43.689Z,101892.61
2019-02-17T02:49:13.560Z,101891.23
2019-02-17T02:51:43.568Z,101891.23
2019-02-17T02:54:13.525Z,101889.00
2019-02-17T02:56:43.475Z,101885.83
2019-02-17T02:59:13.429Z,101884.00
2019-02-17T03:01:43.385Z,101880.41
2019-02-17T03:04:13.333Z,101882.11
2019-02-17T03:06:47.535Z,101876.87
2019-02-17T03:09:18.707Z,101874.25
2019-02-17T03:11:48.659Z,101872.09
2019-02-17T03:14:18.752Z,101870.25
2019-02-17T03:16:49.021Z,101867.23
2019-02-17T03:19:19.347Z,101869.07
2019-02-17T03:21:49.717Z,101867.49
2019-02-17T03:24:19.935Z,101868.50
2019-02-17T03:26:50.160Z,101865.03
2019-02-17T03:29:20.106Z,101863.72
2019-02-17T03:31:49.929Z,101872.38
2019-02-17T03:34:19.804Z,101867.13
2019-02-17T03:36:49.804Z,101862.81
2019-02-17T03:39:19.758Z,101858.09
2019-02-17T03:41:49.709Z,101855.99
2019-02-17T03:44:19.667Z,101855.59
2019-02-17T03:46:50.189Z,101859.92
2019-02-17T03:49:20.133Z,101860.44
2019-02-17T03:51:50.676Z,101855.14
2019-02-17T03:54:20.561Z,101853.44
2019-02-17T03:56:50.563Z,101855.20
2019-02-17T03:59:20.655Z,101850.02
2019-02-17T04:01:50.651Z,101853.11
2019-02-17T04:04:21.839Z,101853.95
2019-02-17T04:06:51.790Z,101858.86
2019-02-17T04:09:21.755Z,101855.91
2019-02-17T04:11:52.025Z,101853.30
2019-02-17T04:14:21.988Z,101857.62
2019-02-17T04:16:52.537Z,101854.08
2019-02-17T04:19:22.547Z,101847.53
2019-02-17T04:21:52.507Z,101844.45
2019-02-17T04:24:22.399Z,101841.84
2019-02-17T04:26:52.416Z,101841.91
2019-02-17T04:29:22.386Z,101840.35
2019-02-17T04:31:52.299Z,101836.95
2019-02-17T04:34:22.266Z,101836.62
2019-02-17T04:36:52.229Z,101833.60
2019-02-17T04:39:22.380Z,101830.20
2019-02-17T04:41:52.265Z,101822.73
2019-02-17T04:44:22.515Z,101821.88
2019-02-17T04:46:52.766Z,101823.25
2019-02-17T04:49:22.949Z,101825.41
2019-02-17T04:51:52.913Z,101823.25
2019-02-17T04:54:22.872Z,101825.41
2019-02-17T04:56:52.762Z,101830.20
2019-02-17T04:59:22.921Z,101830.59
2019-02-17T05:01:52.802Z,101821.30
2019-02-17T05:04:22.799Z,101822.08
2019-02-17T05:06:53.829Z,101815.93
2019-02-17T05:09:23.717Z,101815.02
2019-02-17T05:11:54.336Z,101815.53
2019-02-17T05:14:24.121Z,101815.08
2019-02-17T05:16:54.052Z,101811.67
2019-02-17T05:19:23.942Z,101810.03
2019-02-17T05:21:53.915Z,101809.12
2019-02-17T05:24:23.810Z,101804.67
2019-02-17T05:26:53.790Z,101810.63
2019-02-17T05:29:23.761Z,101812.69
2019-02-17T05:31:55.222Z,101821.80
2019-02-17T05:34:25.420Z,101821.34
2019-02-17T05:36:55.219Z,101820.09
2019-02-17T05:39:25.505Z,101817.57
2019-02-17T05:41:55.318Z,101819.41
2019-02-17T05:44:25.277Z,101815.14
2019-02-17T05:46:55.107Z,101816.13
2019-02-17T05:49:25.073Z,101811.92
2019-02-17T05:51:55.118Z,101811.59
2019-02-17T05:54:25.246Z,101810.90
2019-02-17T05:56:55.233Z,101808.86
2019-02-17T05:59:25.411Z,101809.35
2019-02-17T06:01:55.366Z,101801.62
2019-02-17T06:04:25.321Z,101799.52
2019-02-17T06:06:55.556Z,101804.36
2019-02-17T06:09:25.425Z,101805.67
2019-02-17T06:11:55.323Z,101796.91
2019-02-17T06:14:25.215Z,101800.89
2019-02-17T06:16:55.017Z,101801.29
2019-02-17T06:19:24.899Z,101800.83
2019-02-17T06:21:54.773Z,101797.76
2019-02-17T06:24:24.733Z,101804.17
2019-02-17T06:26:54.684Z,101798.88
2019-02-17T06:29:24.662Z,101805.85
2019-02-17T06:31:54.617Z,101805.42
2019-02-17T06:34:24.794Z,101800.64
2019-02-17T06:36:54.759Z,101805.42
2019-02-17T06:39:24.721Z,101808.16
2019-02-17T06:41:54.548Z,101803.78
2019-02-17T06:44:24.760Z,101801.23
2019-02-17T06:47:05.711Z,101806.98
2019-02-17T06:49:35.849Z,101807.44
2019-02-17T06:52:05.786Z,101811.12
2019-02-17T06:54:35.618Z,101813.02
2019-02-17T06:57:15.838Z,101809.61
2019-02-17T06:59:45.701Z,101811.44
2019-02-17T07:02:16.023Z,101805.02
2019-02-17T07:05:05.160Z,101811.16
2019-02-17T07:07:35.459Z,101810.86
2019-02-17T07:10:05.968Z,101810.52
2019-02-17T07:12:36.099Z,101804.83
2019-02-17T07:15:06.064Z,101803.53
2019-02-17T07:17:35.870Z,101796.59
2019-02-17T07:20:06.565Z,101805.30
2019-02-17T07:22:36.370Z,101800.45
2019-02-17T07:25:06.443Z,101802.16
2019-02-17T07:27:36.945Z,101797.31
2019-02-17T07:30:08.439Z,101800.17
2019-02-17T07:32:38.453Z,101797.83
2019-02-17T07:35:08.809Z,101799.41
2019-02-17T07:37:38.744Z,101799.68
2019-02-17T07:40:08.883Z,101798.03
2019-02-17T07:42:39.317Z,101794.80
2019-02-17T07:45:09.422Z,101792.80
2019-02-17T07:47:39.583Z,101799.55
2019-02-17T07:50:09.866Z,101800.22
2019-02-17T07:52:40.788Z,101797.83
2019-02-17T07:55:11.093Z,101801.95
2019-02-17T07:57:41.676Z,101805.17
2019-02-17T08:00:11.941Z,101798.45
2019-02-17T08:02:41.896Z,101794.73
2019-02-17T08:05:12.196Z,101797.94
2019-02-17T08:07:42.148Z,101797.64
2019-02-17T08:10:12.550Z,101799.20
2019-02-17T08:12:42.502Z,101800.64
2019-02-17T08:15:12.454Z,101800.34
2019-02-17T08:17:42.318Z,101797.84
2019-02-17T08:20:12.269Z,101800.94
2019-02-17T08:22:42.233Z,101794.04
2019-02-17T08:25:21.600Z,101785.86
2019-02-17T08:27:43.841Z,101788.59
2019-02-17T08:30:13.834Z,101783.11
2019-02-17T08:32:44.310Z,101787.29
2019-02-17T08:35:14.487Z,101790.02
2019-02-17T08:37:44.480Z,101788.00
2019-02-17T08:40:14.380Z,101786.02
2019-02-17T08:42:44.238Z,101778.39
2019-02-17T08:45:14.562Z,101770.66
2019-02-17T08:47:44.732Z,101769.51
2019-02-17T08:50:14.606Z,101762.19
2019-02-17T08:52:44.960Z,101764.95
2019-02-17T08:55:15.265Z,101765.58
2019-02-17T08:57:45.210Z,101763.58
2019-02-17T09:00:15.166Z,101766.34
2019-02-17T09:02:45.438Z,101761.63
2019-02-17T09:05:15.414Z,101768.72
2019-02-17T09:07:46.037Z,101754.81
2019-02-17T09:10:16.301Z,101755.25
2019-02-17T09:12:47.388Z,101745.74
2019-02-17T09:15:17.573Z,101742.80
2019-02-17T09:17:47.556Z,101742.08
2019-02-17T09:20:17.436Z,101744.77
2019-02-17T09:22:47.417Z,101739.28
2019-02-17T09:25:17.382Z,101739.39
2019-02-17T09:27:47.257Z,101737.41
2019-02-17T09:30:18.224Z,101740.53
2019-02-17T09:32:48.189Z,101738.51
2019-02-17T09:35:18.418Z,101738.66
2019-02-17T09:37:48.631Z,101744.02
2019-02-17T09:40:18.593Z,101735.72
2019-02-17T09:42:48.599Z,101730.95
2019-02-17T09:45:18.572Z,101731.30
2019-02-17T09:47:48.523Z,101733.56
2019-02-17T09:50:18.403Z,101731.92
2019-02-17T09:52:48.273Z,101725.35
2019-02-17T09:55:18.232Z,101727.56
2019-02-17T09:57:48.182Z,101731.43
2019-02-17T10:00:18.157Z,101724.89
2019-02-17T10:02:48.105Z,101724.25
2019-02-17T10:05:18.122Z,101727.47
2019-02-17T10:07:48.091Z,101724.14
2019-02-17T10:10:18.446Z,101726.12
2019-02-17T10:12:48.674Z,101729.41
2019-02-17T10:15:18.643Z,101729.72
2019-02-17T10:17:48.704Z,101727.83
2019-02-17T10:20:18.663Z,101724.99
2019-02-17T10:22:48.961Z,101718.55
2019-02-17T10:25:18.861Z,101717.30
2019-02-17T10:27:48.849Z,101718.59
2019-02-17T10:30:19.240Z,101710.27
2019-02-17T10:32:49.298Z,101713.61
2019-02-17T10:35:19.658Z,101707.80
2019-02-17T10:37:49.770Z,101708.58
2019-02-17T10:40:19.845Z,101703.23
2019-02-17T10:42:49.802Z,101706.16
2019-02-17T10:45:19.847Z,101701.73
2019-02-17T10:47:49.829Z,101694.28
2019-02-17T10:50:19.897Z,101693.87
2019-02-17T10:52:49.895Z,101693.85
2019-02-17T10:55:19.995Z,101695.73
2019-02-17T10:57:49.984Z,101688.25
2019-02-17T11:00:20.027Z,101686.53
2019-02-17T11:02:50.365Z,101685.78
2019-02-17T11:05:20.312Z,101681.29
2019-02-17T11:07:51.215Z,101687.23
2019-02-17T11:10:21.192Z,101683.19
2019-02-17T11:12:51.245Z,101673.97
2019-02-17T11:15:21.548Z,101674.02
2019-02-17T11:17:51.513Z,101670.59
2019-02-17T11:20:21.464Z,101665.69
2019-02-17T11:22:51.428Z,101661.21
2019-02-17T11:25:22.521Z,101654.23
2019-02-17T11:27:52.793Z,101654.49
2019-02-17T11:30:22.836Z,101646.31
2019-02-17T11:32:58.084Z,101642.33
2019-02-17T11:35:24.249Z,101644.39
2019-02-17T11:37:54.245Z,101640.91
2019-02-17T11:40:24.218Z,101635.58
2019-02-17T11:42:54.210Z,101632.69
2019-02-17T11:45:24.198Z,101630.64
2019-02-17T11:47:54.166Z,101632.92
2019-02-17T11:50:24.084Z,101627.73
2019-02-17T11:52:54.452Z,101623.87
2019-02-17T11:55:24.343Z,101617.03
2019-02-17T11:57:54.860Z,101621.02
2019-02-17T12:00:24.826Z,101610.61
2019-02-17T12:02:54.861Z,101611.95
2019-02-17T12:05:24.819Z,101603.15
2019-02-17T12:07:55.065Z,101602.39
2019-02-17T12:10:25.374Z,101601.64
2019-02-17T12:12:55.407Z,101594.75
2019-02-17T12:15:25.363Z,101587.49
2019-02-17T12:17:55.380Z,101588.53
2019-02-17T12:20:51.624Z,101585.70
2019-02-17T12:23:34.837Z,101586.83
2019-02-17T12:26:27.042Z,101586.01
2019-02-17T12:29:05.418Z,101581.91
2019-02-17T12:31:37.759Z,101576.09
2019-02-17T12:34:07.723Z,101578.03
2019-02-17T12:36:37.695Z,101575.11
2019-02-17T12:39:09.548Z,101563.45
2019-02-17T12:41:39.513Z,101563.55
2019-02-17T12:44:09.464Z,101561.17
2019-02-17T12:46:39.499Z,101557.41
2019-02-17T12:49:09.449Z,101555.83
2019-02-17T12:51:39.664Z,101553.91
2019-02-17T12:54:09.637Z,101548.59
2019-02-17T12:56:39.606Z,101549.31
2019-02-17T12:59:09.588Z,101547.00
2019-02-17T13:01:39.577Z,101543.98
2019-02-17T13:04:09.567Z,101541.59
2019-02-17T13:06:39.515Z,101532.22
2019-02-17T13:09:10.451Z,101531.61
2019-02-17T13:11:40.546Z,101531.92
2019-02-17T13:14:10.555Z,101532.16
2019-02-17T13:16:41.087Z,101523.56
2019-02-17T13:19:11.035Z,101519.17
2019-02-17T13:21:41.021Z,101516.64
2019-02-17T13:24:10.971Z,101509.78
2019-02-17T13:26:41.273Z,101510.99
2019-02-17T13:29:11.593Z,101502.92
2019-02-17T13:31:41.791Z,101502.56
2019-02-17T13:34:12.783Z,101497.05
2019-02-17T13:36:42.753Z,101491.25
2019-02-17T13:39:12.707Z,101494.87
2019-02-17T13:41:42.782Z,101486.33
2019-02-17T13:44:12.830Z,101495.84
2019-02-17T13:46:42.812Z,101489.19
2019-02-17T13:49:12.804Z,101485.68
2019-02-17T13:51:43.462Z,101490.91
2019-02-17T13:54:13.678Z,101486.30
2019-02-17T13:56:43.668Z,101476.15
2019-02-17T13:59:13.599Z,101483.78
2019-02-17T14:01:43.574Z,101471.49
2019-02-17T14:04:13.568Z,101479.98
2019-02-17T14:06:43.568Z,101466.65
2019-02-17T14:09:13.867Z,101465.46
2019-02-17T14:11:44.244Z,101461.31
2019-02-17T14:14:14.260Z,101467.28
2019-02-17T14:16:44.254Z,101468.81
2019-02-17T14:19:15.625Z,101460.34
2019-02-17T14:21:47.082Z,101452.72
2019-02-17T14:24:18.031Z,101450.84
2019-02-17T14:26:48.001Z,101447.39
2019-02-17T14:29:18.328Z,101447.05
2019-02-17T14:31:48.606Z,101443.63
2019-02-17T14:34:18.730Z,101440.77
2019-02-17T14:36:48.632Z,101437.26
2019-02-17T14:39:18.896Z,101441.70
2019-02-17T14:41:48.907Z,101439.03
2019-02-17T14:44:18.886Z,101435.45
2019-02-17T14:46:48.860Z,101428.67
2019-02-17T14:49:18.858Z,101427.68
2019-02-17T14:51:48.823Z,101429.67
2019-02-17T14:54:18.730Z,101423.52
2019-02-17T14:56:48.907Z,101429.24
2019-02-17T14:59:18.902Z,101429.92
2019-02-17T15:01:48.917Z,101415.59
2019-02-17T15:04:18.937Z,101415.59
2019-02-17T15:06:49.147Z,101418.72
2019-02-17T15:09:19.849Z,101418.72
2019-02-17T15:11:51.589Z,101417.38
2019-02-17T15:14:21.795Z,101419.89
2019-02-17T15:16:53.080Z,101419.89
2019-02-17T15:19:24.134Z,101415.88
2019-02-17T15:21:54.408Z,101414.31
2019-02-17T15:24:24.694Z,101415.41
2019-02-17T15:26:54.568Z,101422.08
2019-02-17T15:29:24.534Z,101420.75
2019-02-17T15:31:54.526Z,101415.19
2019-02-17T15:34:24.511Z,101416.42
2019-02-17T15:36:54.719Z,101424.80
2019-02-17T15:39:24.743Z,101416.19
2019-02-17T15:41:54.912Z,101414.53
2019-02-17T15:44:24.786Z,101418.22
2019-02-17T15:46:55.079Z,101418.03
2019-02-17T15:49:26.027Z,101419.88
2019-02-17T15:51:55.989Z,101424.41
2019-02-17T15:54:25.907Z,101424.28
2019-02-17T15:56:55.869Z,101433.03
2019-02-17T15:59:26.090Z,101428.47
2019-02-17T16:01:56.148Z,101421.08
2019-02-17T16:04:28.522Z,101418.03
2019-02-17T16:06:58.122Z,101424.45
2019-02-17T16:09:28.018Z,101417.83
2019-02-17T16:11:58.351Z,101416.87
2019-02-17T16:14:28.607Z,101416.50
2019-02-17T16:16:58.502Z,101421.75
2019-02-17T16:19:28.395Z,101408.44
2019-02-17T16:21:58.364Z,101417.41
2019-02-17T16:24:28.321Z,101413.26
2019-02-17T16:26:58.745Z,101411.73
2019-02-17T16:29:28.627Z,101412.05
2019-02-17T16:31:58.709Z,101405.66
2019-02-17T16:34:37.845Z,101403.81
2019-02-17T16:37:00.363Z,101409.67
2019-02-17T16:39:30.830Z,101406.11
2019-02-17T16:42:00.795Z,101397.86
2019-02-17T16:44:30.788Z,101403.66
2019-02-17T16:47:00.758Z,101413.47
2019-02-17T16:49:30.750Z,101405.16
2019-02-17T16:52:00.951Z,101404.72
2019-02-17T16:54:30.884Z,101413.28
2019-02-17T16:57:00.877Z,101409.81
2019-02-17T16:59:31.373Z,101417.05
2019-02-17T17:02:01.639Z,101417.80
2019-02-17T17:04:31.622Z,101415.73
2019-02-17T17:07:01.612Z,101424.64
2019-02-17T17:09:32.090Z,101425.23
2019-02-17T17:12:02.347Z,101430.05
2019-02-17T17:14:32.292Z,101438.10
2019-02-17T17:17:02.855Z,101438.61
2019-02-17T17:19:32.857Z,101441.49
2019-02-17T17:22:02.809Z,101437.25
2019-02-17T17:24:32.704Z,101439.30
2019-02-17T17:27:02.677Z,101443.36
2019-02-17T17:29:32.894Z,101447.09
2019-02-17T17:32:02.910Z,101450.56
2019-02-17T17:34:34.235Z,101463.77
2019-02-17T17:37:04.316Z,101466.05
2019-02-17T17:39:34.256Z,101475.30
2019-02-17T17:42:04.269Z,101470.38
2019-02-17T17:44:34.593Z,101477.72
2019-02-17T17:47:06.145Z,101479.78
2019-02-17T17:49:36.448Z,101482.66
2019-02-17T17:52:06.440Z,101486.39
2019-02-17T17:54:36.389Z,101482.06
2019-02-17T17:57:06.376Z,101482.17
2019-02-17T17:59:36.347Z,101480.59
2019-02-17T18:02:06.401Z,101480.81
2019-02-17T18:04:36.566Z,101482.36
2019-02-17T18:07:06.889Z,101491.14
2019-02-17T18:09:36.758Z,101489.30
2019-02-17T18:12:06.645Z,101481.73
2019-02-17T18:14:36.581Z,101481.52
2019-02-17T18:17:06.528Z,101485.12
2019-02-17T18:19:37.778Z,101483.43
2019-02-17T18:22:08.021Z,101487.28
2019-02-17T18:24:38.263Z,101490.63
2019-02-17T18:27:08.625Z,101496.14
2019-02-17T18:29:38.524Z,101497.82
2019-02-17T18:32:08.465Z,101503.22
2019-02-17T18:34:38.799Z,101505.45
2019-02-17T18:37:09.026Z,101502.44
2019-02-17T18:39:39.103Z,101496.89
2019-02-17T18:42:09.484Z,101502.28
2019-02-17T18:44:39.940Z,101505.98
2019-02-17T18:47:09.952Z,101503.09
2019-02-17T18:49:40.359Z,101513.40
2019-02-17T18:52:11.090Z,101506.53
2019-02-17T18:54:42.310Z,101509.02
2019-02-17T18:57:13.072Z,101503.58
2019-02-17T18:59:43.082Z,101513.89
2019-02-17T19:02:12.978Z,101507.13
2019-02-17T19:04:43.067Z,101511.20
2019-02-17T19:07:13.049Z,101507.11
2019-02-17T19:09:42.994Z,101513.19
2019-02-17T19:12:13.456Z,101514.93
2019-02-17T19:14:43.400Z,101517.92
2019-02-17T19:17:13.317Z,101522.09
2019-02-17T19:19:43.210Z,101509.57
2019-02-17T19:22:13.242Z,101508.94
2019-02-17T19:24:43.273Z,101516.62
2019-02-17T19:27:13.286Z,101514.56
2019-02-17T19:29:43.494Z,101511.08
2019-02-17T19:32:13.468Z,101515.61
2019-02-17T19:34:43.429Z,101515.34
2019-02-17T19:37:14.769Z,101519.14
2019-02-17T19:39:44.976Z,101524.19
2019-02-17T19:42:15.845Z,101521.66
2019-02-17T19:44:45.799Z,101528.83
2019-02-17T19:47:15.764Z,101527.34
2019-02-17T19:49:45.650Z,101536.79
2019-02-17T19:52:15.622Z,101537.37
2019-02-17T19:54:45.817Z,101545.05
2019-02-17T19:57:16.036Z,101544.41
2019-02-17T19:59:45.999Z,101544.14
2019-02-17T20:02:17.927Z,101547.08
2019-02-17T20:04:56.287Z,101545.72
2019-02-17T20:07:26.348Z,101548.02
2019-02-17T20:09:56.283Z,101548.84
2019-02-17T20:12:27.561Z,101550.19
2019-02-17T20:14:57.508Z,101548.45
2019-02-17T20:17:27.412Z,101546.77
2019-02-17T20:19:57.296Z,101546.45
2019-02-17T20:22:27.556Z,101546.64
2019-02-17T20:24:57.496Z,101549.95
2019-02-17T20:27:27.380Z,101548.10
2019-02-17T20:29:57.301Z,101550.52
2019-02-17T20:32:27.341Z,101548.36
2019-02-17T20:34:57.294Z,101550.24
2019-02-17T20:37:27.180Z,101550.44
2019-02-17T20:39:57.420Z,101552.55
2019-02-17T20:42:27.304Z,101553.30
2019-02-17T20:44:57.194Z,101558.86
2019-02-17T20:47:27.321Z,101554.63
2019-02-17T20:49:57.260Z,101554.84
2019-02-17T20:52:27.668Z,101556.92
2019-02-17T20:54:57.859Z,101552.49
2019-02-17T20:57:27.827Z,101555.44
2019-02-17T20:59:58.146Z,101551.48
2019-02-17T21:02:28.096Z,101552.70
2019-02-17T21:04:57.897Z,101554.05
2019-02-17T21:07:28.227Z,101552.63
2019-02-17T21:09:58.502Z,101555.10
2019-02-17T21:12:30.523Z,101554.15
2019-02-17T21:15:00.309Z,101550.94
2019-02-17T21:17:30.645Z,101549.93
2019-02-17T21:20:00.517Z,101559.98
2019-02-17T21:22:30.730Z,101557.14
2019-02-17T21:25:00.810Z,101560.92
2019-02-17T21:27:30.849Z,101561.66
2019-02-17T21:30:00.820Z,101561.08
2019-02-17T21:32:30.941Z,101565.58
2019-02-17T21:35:00.820Z,101568.42
2019-02-17T21:37:31.184Z,101566.73
2019-02-17T21:40:01.049Z,101562.41
2019-02-17T21:42:31.261Z,101558.08
2019-02-17T21:45:01.395Z,101560.03
2019-02-17T21:47:32.637Z,101564.54
2019-02-17T21:50:03.538Z,101559.75
2019-02-17T21:52:33.549Z,101567.17
2019-02-17T21:55:03.499Z,101561.06
2019-02-17T21:57:33.836Z,101564.07
2019-02-17T22:00:03.887Z,101561.44
2019-02-17T22:02:34.923Z,101554.02
2019-02-17T22:05:04.989Z,101553.16
2019-02-17T22:07:35.204Z,101552.23
2019-02-17T22:10:05.890Z,101549.60
2019-02-17T22:12:35.749Z,101544.80
2019-02-17T22:15:06.860Z,101554.48
2019-02-17T22:17:37.197Z,101550.07
2019-02-17T22:20:08.013Z,101543.95
2019-02-17T22:22:38.193Z,101543.58
2019-02-17T22:25:08.231Z,101541.13
2019-02-17T22:27:38.235Z,101545.54
2019-02-17T22:30:09.089Z,101539.25
2019-02-17T22:32:38.956Z,101542.64
2019-02-17T22:35:09.159Z,101540.39
2019-02-17T22:37:39.105Z,101540.39
2019-02-17T22:40:09.564Z,101544.34
2019-02-17T22:42:39.976Z,101536.91
2019-02-17T22:45:10.054Z,101537.38
2019-02-17T22:47:40.094Z,101533.05
2019-02-17T22:50:10.438Z,101537.94
2019-02-17T22:52:40.383Z,101537.55
2019-02-17T22:55:11.486Z,101532.85
2019-02-17T22:57:41.444Z,101531.75
2019-02-17T23:00:18.364Z,101522.25
2019-02-17T23:02:50.060Z,101526.84
2019-02-17T23:05:21.165Z,101527.56
2019-02-17T23:07:51.848Z,101534.81
2019-02-17T23:10:22.091Z,101527.95
2019-02-17T23:12:52.218Z,101527.36
2019-02-17T23:15:22.331Z,101533.73
2019-02-17T23:17:52.315Z,101532.23
2019-02-17T23:20:22.266Z,101539.53
2019-02-17T23:22:52.224Z,101527.70
2019-02-17T23:25:22.391Z,101535.51
2019-02-17T23:27:52.372Z,101533.34
2019-02-17T23:30:22.661Z,101536.06
2019-02-17T23:32:52.613Z,101536.61
2019-02-17T23:35:22.972Z,101528.43
2019-02-17T23:37:52.925Z,101534.45
2019-02-17T23:40:22.883Z,101535.30
2019-02-17T23:42:53.067Z,101538.77
2019-02-17T23:45:23.022Z,101540.47
2019-02-17T23:47:52.974Z,101537.08
2019-02-17T23:50:22.921Z,101534.63
2019-02-17T23:52:54.555Z,101531.81
2019-02-17T23:55:24.540Z,101531.98
2019-02-17T23:57:54.408Z,101529.91
